Date,TemperatureHighF,TemperatureAvgF,TemperatureLowF,DewpointHighF,DewpointAvgF,DewpointLowF,HumidityHigh,HumidityAvg,HumidityLow,PressureMaxIn,PressureMinIn,WindSpeedMaxMPH,WindSpeedAvgMPH,GustSpeedMaxMPH,PrecipitationSumIn
2013-1-1,48.6,45.2,40.6,48.6,42.5,20.4,100,91,44,30.07,29.92,12,1,15,0.81
2013-1-2,45.1,38.3,35.0,44.3,37.5,34.2,100,97,94,30.06,29.90,15,1,20,0.23
2013-1-3,38.5,34.4,30.7,36.3,32.0,24.3,100,91,75,30.24,30.02,11,1,14,0.00
2013-1-4,38.4,31.7,26.3,26.2,21.9,14.4,89,69,39,30.29,30.21,18,3,20,0.00
2013-1-5,47.1,34.5,22.9,32.0,23.0,18.5,90,67,34,30.29,30.17,20,3,24,0.03
2013-1-6,42.0,37.4,35.0,37.3,34.2,30.5,97,88,78,30.19,30.05,19,6,21,0.02
2013-1-7,50.7,36.9,26.5,33.7,27.8,21.5,95,72,40,30.31,30.16,13,1,16,0.00
2013-1-8,53.4,40.2,30.1,43.7,33.5,24.7,92,77,66,30.36,30.26,15,0,16,0.00
2013-1-9,53.8,49.5,42.5,52.4,48.1,40.3,100,95,90,30.44,30.33,2,0,5,0.01
2013-1-10,61.7,54.3,47.8,55.0,51.4,47.8,100,91,72,30.45,30.24,20,1,24,0.00
2013-1-11,60.6,58.9,56.3,60.6,57.1,52.9,100,94,86,30.25,30.12,24,5,39,0.41
2013-1-12,66.5,62.0,59.2,63.5,60.1,55.1,100,93,82,30.20,30.09,19,5,25,0.23
2013-1-13,63.4,61.4,59.2,59.3,56.6,53.0,97,84,76,30.13,30.03,25,6,29,0.83
2013-1-14,59.2,55.3,47.3,59.2,55.1,46.5,100,99,95,30.16,30.03,12,1,16,2.86
2013-1-15,59.0,55.0,48.2,59.0,55.0,48.2,100,100,100,30.11,29.95,12,1,18,3.32
2013-1-16,59.5,56.0,51.6,59.5,55.9,51.6,100,100,93,30.01,29.90,24,4,29,1.28
2013-1-17,51.7,43.8,31.9,51.6,43.3,29.3,100,98,87,30.19,29.66,23,2,28,1.59
2013-1-18,44.7,35.3,28.6,33.9,27.6,21.2,91,74,58,30.40,30.18,13,1,16,0.00
2013-1-19,48.2,37.2,26.9,31.9,28.2,24.4,96,73,44,30.38,30.16,14,2,20,0.00
2013-1-20,52.6,43.2,37.6,37.4,31.0,26.2,76,62,46,30.16,30.05,14,2,16,0.00
2013-1-21,44.7,36.2,28.0,32.3,25.1,15.2,88,66,42,30.08,29.99,20,3,29,0.00
2013-1-22,31.5,24.8,18.5,17.2,7.6,-1.9,70,49,28,30.16,30.02,21,4,29,0.00
2013-1-23,40.7,32.5,24.5,30.4,20.3,7.8,76,61,47,30.24,30.07,30,7,30,0.00
2013-1-24,41.0,34.0,25.6,34.6,20.7,10.0,81,59,38,30.25,30.04,25,4,34,0.00
2013-1-25,38.9,30.0,23.3,38.9,25.9,13.6,100,85,58,30.25,30.02,21,4,27,0.36
2013-1-26,46.5,38.9,32.9,38.3,25.7,17.0,100,62,32,30.25,30.07,11,3,17,0.09
2013-1-27,49.2,37.6,26.8,35.9,29.8,23.6,90,74,57,30.38,30.24,12,1,15,0.02
2013-1-28,57.1,47.1,39.5,50.8,42.3,32.6,96,83,73,30.36,30.24,16,3,20,0.01
2013-1-29,61.6,55.1,46.9,58.9,51.8,45.0,95,89,76,30.27,29.97,21,4,33,0.04
2013-1-30,62.5,61.1,60.1,60.7,59.0,55.9,96,93,87,29.97,29.57,35,14,44,1.18
2013-3-25,29.5,27.4,25.7,27.1,24.9,22.9,92,90,88,30.02,29.80,23,7,23,0.00
2013-3-26,33.3,27.5,25.3,28.2,24.6,22.6,100,89,78,30.30,30.01,23,5,23,0.00
2013-3-27,41.7,33.6,27.3,27.7,24.4,21.6,88,70,50,30.36,30.27,22,6,22,0.15
2013-3-28,47.9,39.3,31.3,29.5,24.3,20.8,73,56,39,30.35,30.27,22,6,22,0.06
2013-3-29,44.7,37.1,29.5,39.1,30.7,21.1,100,79,47,30.36,30.26,8,0,9,0.10
2013-3-30,60.7,47.4,37.7,49.6,41.7,37.7,100,84,49,30.27,30.02,20,3,20,0.23
2013-3-31,58.1,52.2,48.1,54.8,51.7,47.1,100,98,86,30.02,29.83,31,14,31,1.09
2013-4-1,59.7,51.2,41.6,52.8,43.4,36.4,100,76,55,30.01,29.84,20,5,20,0.10
2013-4-2,54.2,45.0,36.0,37.4,25.6,13.1,79,50,24,30.16,30.00,17,6,17,0.00
2013-4-3,61.5,48.1,37.0,35.1,28.9,22.6,70,48,32,30.20,30.11,18,3,18,0.00
2013-4-4,48.4,39.9,35.7,38.9,35.6,28.5,100,87,46,30.16,29.94,16,5,16,0.84
2013-4-5,56.2,46.3,38.9,44.3,39.7,34.7,100,80,52,30.10,29.94,15,4,15,0.01
2013-4-6,67.5,51.9,35.8,42.6,36.6,32.6,90,60,33,30.20,30.08,25,4,25,0.00
2013-4-7,68.9,57.7,45.2,47.2,41.6,35.2,76,56,41,30.15,30.04,25,7,25,0.00
2013-4-8,71.8,62.2,52.6,53.2,49.5,44.6,83,64,46,30.09,30.01,28,8,28,0.00
2013-4-9,79.0,65.8,53.8,58.0,53.7,50.1,89,67,44,30.14,30.02,23,4,23,0.00
2013-4-10,82.6,69.2,56.0,61.7,55.7,52.3,90,65,38,30.07,29.85,21,6,21,0.00
2013-4-11,76.5,67.2,59.1,62.5,56.9,53.0,96,70,50,29.87,29.59,32,8,32,0.79
2013-4-12,62.1,57.6,49.7,59.7,50.1,38.5,100,78,47,29.89,29.54,36,9,41,0.51
2013-4-13,66.0,55.3,46.6,41.3,36.5,23.8,75,52,22,30.02,29.88,18,4,18,0.00
2013-4-14,67.2,52.8,41.9,48.8,41.1,35.0,91,66,38,30.04,29.90,32,3,32,0.02
2013-4-15,76.9,64.2,50.7,58.6,54.6,48.8,100,74,46,30.11,29.91,22,7,22,0.03
2013-4-16,80.3,66.3,53.4,62.0,56.9,51.3,94,74,49,30.19,30.07,21,5,22,0.00
2013-4-17,79.8,66.3,60.8,66.1,60.2,57.7,95,81,56,30.15,30.00,24,4,24,0.08
2013-4-18,74.8,66.3,60.6,60.3,58.0,55.3,92,76,54,30.02,29.82,31,7,31,0.00
2013-4-19,66.6,57.2,39.8,61.9,52.9,32.8,96,86,76,29.95,29.64,44,16,44,0.58
2013-4-20,55.7,44.8,33.9,36.7,31.1,25.9,81,60,42,30.27,29.95,23,6,23,0.00
2013-4-21,64.2,49.1,34.7,38.4,33.9,30.3,89,59,34,30.37,30.23,15,3,15,0.00
2013-4-22,69.9,54.2,41.6,44.3,39.0,36.3,83,59,35,30.32,30.10,15,5,15,0.00
2013-4-23,72.1,57.3,40.4,50.1,42.4,35.5,85,60,39,30.18,30.02,23,5,23,0.00
2013-4-24,65.4,57.8,47.4,58.2,51.8,45.6,96,81,67,30.08,29.97,24,8,24,0.35
2013-4-25,63.6,50.1,37.8,45.6,35.5,25.2,100,64,24,30.33,30.08,14,4,14,0.00
2013-4-26,71.9,55.0,37.1,44.1,36.1,28.7,80,52,27,30.38,30.25,17,3,17,0.00
2013-4-27,57.1,50.0,46.8,52.5,48.2,42.2,100,94,58,30.33,30.17,16,1,16,1.19
2013-4-28,52.9,51.1,48.4,52.9,51.1,48.4,100,100,100,30.18,29.95,24,2,24,2.30
2013-4-29,71.7,59.7,51.2,57.7,52.9,49.8,100,81,46,30.01,29.89,17,4,17,0.10
2013-4-30,76.2,62.0,47.4,57.6,52.6,46.1,100,74,48,30.07,29.92,14,2,16,0.00
2013-5-1,75.3,63.5,55.7,56.4,53.0,48.5,92,71,44,30.12,30.05,14,2,14,0.00
2013-5-2,66.6,60.8,55.7,57.3,53.2,48.6,87,76,66,30.15,30.08,12,3,12,0.00
2013-5-3,66.2,57.9,52.5,53.2,51.8,49.4,95,81,58,30.11,29.94,10,4,10,0.03
2013-5-4,53.9,51.5,49.6,50.7,48.0,39.9,100,88,67,29.94,29.84,15,4,15,0.56
2013-5-5,54.8,51.4,49.9,54.7,50.8,48.7,100,98,90,29.84,29.73,24,2,24,0.57
2013-5-6,57.5,48.6,43.1,49.3,45.8,42.7,100,91,68,29.89,29.71,26,5,26,0.35
2013-5-7,65.5,52.7,40.8,52.5,46.1,40.2,100,80,52,29.96,29.86,16,2,16,0.00
2013-5-8,64.8,57.1,52.6,58.4,53.9,48.7,100,89,73,30.05,29.91,17,4,17,0.13
2013-5-9,75.1,62.2,50.1,61.6,54.5,49.3,100,79,52,30.10,30.00,14,2,14,0.00
2013-5-10,68.9,62.4,53.4,61.3,56.6,51.6,96,82,70,30.07,29.90,23,4,23,0.06
2013-5-11,67.2,60.0,54.6,61.6,57.9,52.7,100,93,77,29.93,29.83,20,5,20,0.50
2013-5-12,60.3,52.8,46.9,53.1,41.5,30.3,95,69,40,30.08,29.89,16,5,16,0.04
2013-5-13,60.2,50.3,39.1,37.4,33.1,26.7,81,53,30,30.19,30.07,23,3,23,0.00
2013-5-14,72.6,57.5,38.7,54.0,44.5,34.1,89,63,46,30.24,30.08,23,7,23,0.00
2013-5-15,83.3,70.8,61.3,61.6,54.5,49.7,80,58,36,30.12,29.95,20,6,23,0.00
2013-5-16,77.7,68.6,61.0,59.6,56.3,53.3,80,65,47,29.99,29.91,15,3,15,0.00
2013-5-17,77.8,67.3,59.8,63.7,57.6,51.8,90,73,50,30.04,29.95,14,2,15,0.00
2013-5-18,66.5,62.8,59.2,66.2,61.7,55.0,100,96,72,30.02,29.97,10,1,10,0.35
2013-5-19,67.8,63.6,59.4,67.8,63.1,59.4,100,99,93,30.04,29.94,16,2,16,0.03
2013-5-20,81.3,67.8,56.0,68.1,61.7,56.0,100,83,51,30.08,29.97,16,2,16,0.28
2013-5-21,84.1,71.6,63.1,69.3,65.2,61.9,100,82,50,29.99,29.83,18,2,18,0.03
2013-5-22,81.4,67.2,59.7,68.9,63.3,59.7,100,89,61,29.93,29.79,17,2,19,0.22
2013-5-23,76.2,66.1,61.0,63.3,59.7,53.7,100,81,59,29.92,29.84,29,5,29,0.14
2013-5-24,64.4,58.4,53.3,54.5,47.1,38.2,94,68,41,30.21,29.91,15,3,19,0.01
2013-5-25,77.3,58.1,42.9,47.7,41.1,33.4,88,58,23,30.30,30.16,12,1,12,0.00
2013-5-26,71.4,58.9,49.3,54.7,46.6,39.0,93,65,47,30.26,30.16,6,0,6,0.02
2013-5-27,81.3,65.0,50.8,60.5,53.9,47.7,93,70,45,30.25,30.14,12,2,13,0.00
2013-5-28,81.3,70.0,61.5,64.0,59.2,53.1,90,70,38,30.22,30.12,17,4,17,0.00
2013-5-29,81.5,69.7,59.3,67.7,60.6,56.9,95,75,46,30.25,30.15,19,2,19,0.00
2013-5-30,81.9,68.9,60.2,66.3,60.8,58.0,94,77,52,30.29,30.17,16,1,16,0.00
2013-5-31,82.2,70.4,61.8,64.6,61.4,58.9,93,75,50,30.24,30.12,15,2,15,0.00
2013-6-1,82.5,71.9,64.6,66.4,63.6,61.2,96,76,54,30.15,30.02,18,4,18,0.19
2013-6-2,69.3,66.5,64.4,69.3,66.3,63.9,100,99,94,30.03,29.93,17,2,17,1.74
2013-6-3,75.6,67.6,61.9,67.4,63.5,60.7,100,88,62,30.03,29.93,11,1,11,0.01
2013-6-4,80.2,68.2,57.0,65.9,61.4,57.0,100,81,55,30.08,30.01,10,1,10,0.00
2013-6-5,81.3,68.4,62.6,71.1,65.1,61.7,100,90,63,30.09,29.95,16,2,16,1.14
2013-6-6,74.8,66.7,61.6,69.4,65.5,61.6,100,96,81,29.98,29.81,20,1,20,0.08
2013-6-7,80.0,68.4,62.1,69.3,65.2,61.8,100,91,60,29.90,29.73,9,1,9,0.25
2013-6-8,77.9,67.6,60.7,66.9,62.7,59.7,100,86,62,30.15,29.88,15,3,15,0.00
2013-6-9,82.1,67.7,61.2,70.8,64.9,60.1,100,92,64,30.17,30.04,21,2,21,0.98
2013-6-10,73.1,67.4,61.4,66.3,64.8,60.6,100,92,72,30.04,29.96,24,7,24,0.49
2013-6-11,80.6,71.5,65.2,71.8,67.3,64.8,100,88,65,30.08,30.00,16,2,16,0.21
2013-6-12,84.8,75.6,66.5,77.3,70.6,65.2,96,85,68,30.10,29.99,15,2,15,0.00
2013-6-13,83.0,73.1,67.9,74.2,70.2,65.8,99,91,72,29.99,29.74,20,5,36,0.30
2013-6-14,75.5,67.3,56.5,66.1,57.6,55.0,96,73,49,30.10,29.87,3,0,8,0.00
2013-6-15,82.7,67.6,54.2,65.9,59.6,53.0,98,77,51,30.20,30.09,10,1,10,0.00
2013-6-16,84.0,70.9,59.8,68.3,63.5,58.7,98,79,53,30.20,30.06,12,2,12,0.00
2013-6-17,76.3,70.9,67.4,72.2,68.3,66.7,100,92,80,30.09,29.97,15,2,15,0.38
2013-6-18,69.3,67.0,64.8,69.3,66.9,64.8,100,100,98,29.99,29.89,16,2,16,0.69
2013-6-19,76.0,67.3,59.2,69.1,63.5,59.2,100,89,59,30.15,29.97,6,0,6,0.00
2013-6-20,78.2,66.9,60.4,69.6,64.5,59.8,100,93,69,30.28,30.14,16,1,17,1.01
2013-6-21,75.5,66.7,63.1,70.5,65.2,63.1,100,95,76,30.31,30.22,16,1,16,0.01
2013-6-22,78.4,67.6,59.4,68.7,63.4,59.4,100,88,58,30.30,30.16,9,0,9,0.16
2013-6-23,74.9,65.7,59.6,71.5,64.8,59.6,100,97,80,30.27,30.17,6,0,6,0.41
2013-6-24,82.3,71.8,64.7,70.5,66.7,64.3,100,86,58,30.28,30.14,12,2,12,0.00
2013-6-25,79.2,71.0,65.1,70.6,65.9,62.7,94,84,69,30.20,30.07,12,2,12,0.01
2013-6-26,78.3,71.7,65.8,71.1,67.8,63.7,95,88,76,30.11,29.97,18,3,18,0.28
2013-6-27,80.0,72.2,67.7,73.3,68.6,64.0,95,89,72,30.01,29.84,25,5,25,0.65
2013-6-28,83.7,73.4,68.9,71.4,68.5,65.9,95,85,62,29.90,29.70,19,3,20,0.07
2013-6-29,76.5,70.4,65.3,68.4,64.5,61.1,98,83,60,29.77,29.69,12,1,12,0.00
2013-6-30,82.0,69.4,59.1,65.4,61.8,57.7,97,79,51,29.85,29.75,14,1,14,0.00
2013-7-1,79.5,68.2,63.5,67.3,64.6,61.7,98,89,60,29.98,29.82,22,2,22,0.22
2013-7-2,80.8,69.4,62.6,69.2,65.4,62.1,100,88,60,30.14,29.97,23,2,23,0.03
2013-7-3,68.6,65.1,62.6,66.8,64.5,62.3,100,98,92,30.25,30.11,9,0,9,2.46
2013-7-4,70.0,65.5,62.6,70.0,65.3,62.4,100,99,97,30.25,30.17,14,1,14,1.09
2013-7-5,73.0,68.2,65.3,69.5,66.5,64.1,99,95,84,30.26,30.18,29,3,29,0.74
2013-7-6,78.0,69.9,65.9,72.5,68.0,65.4,100,94,78,30.23,30.14,21,2,21,1.88
2013-7-7,74.9,69.8,67.3,70.9,68.6,66.8,99,96,82,30.21,30.14,12,2,12,0.18
2013-7-8,82.0,72.8,66.8,74.0,69.6,66.5,100,91,71,30.24,30.14,16,1,16,0.00
2013-7-9,84.7,72.6,68.0,74.2,70.1,67.4,99,92,67,30.20,30.10,15,1,15,0.38
2013-7-10,80.9,72.9,67.5,74.7,70.3,67.2,100,92,66,30.16,29.99,15,1,15,0.02
2013-7-11,78.4,72.4,68.7,72.8,70.1,68.3,100,93,80,30.01,29.91,13,1,13,0.00
2013-7-12,82.1,72.1,66.9,74.0,68.1,61.0,99,88,69,30.01,29.92,10,1,10,0.00
2013-7-13,76.8,69.1,63.3,69.4,65.0,62.1,98,87,73,30.13,29.99,9,0,6,0.00
2013-7-14,74.3,69.1,66.7,70.7,67.3,64.8,100,94,85,30.28,30.11,9,1,9,0.12
2013-7-15,78.4,71.6,66.1,72.1,67.2,64.7,97,87,74,30.37,30.28,8,0,8,0.00
2013-7-16,84.0,73.9,67.2,74.8,69.2,65.9,97,86,65,30.38,30.27,12,1,12,0.04
2013-7-17,84.1,72.4,65.4,73.7,68.5,64.3,100,88,58,30.35,30.20,9,0,9,0.05
2013-7-18,84.7,70.0,63.1,74.0,67.4,62.7,100,92,67,30.28,30.13,12,1,12,0.14
2013-7-19,84.5,72.2,65.2,74.1,68.8,64.6,100,90,66,30.20,30.05,16,1,16,0.00
2013-7-20,82.0,72.3,67.1,73.5,69.2,66.1,99,91,70,30.10,29.98,12,1,12,0.15
2013-7-21,84.8,71.5,67.7,73.6,69.3,67.1,99,93,64,30.06,29.98,12,1,12,0.35
2013-7-22,77.3,70.9,68.1,72.7,69.1,67.5,99,94,79,30.04,29.89,18,3,19,0.49
2013-7-23,80.7,70.7,66.5,72.7,68.1,65.3,98,92,75,29.99,29.87,20,4,20,0.02
2013-7-24,79.6,72.8,69.3,73.3,69.1,66.5,97,89,70,29.92,29.85,28,1,28,0.00
2013-7-25,84.7,71.4,63.7,71.4,66.2,63.1,99,85,60,30.07,29.90,12,1,12,0.00
2013-7-26,81.5,68.1,60.9,70.1,65.0,60.3,99,90,64,30.12,30.05,26,1,26,0.21
2013-7-27,76.6,69.9,65.5,69.7,67.0,65.2,100,91,74,30.08,29.94,12,2,12,0.00
2013-7-28,76.7,70.0,66.3,68.8,65.2,62.2,96,85,67,30.09,29.95,19,2,19,0.00
2013-7-29,79.7,67.8,60.1,62.8,58.8,51.5,97,75,40,30.25,30.08,6,0,6,0.00
2013-7-30,84.5,66.4,55.9,68.9,59.9,54.3,96,82,50,30.30,30.19,4,0,12,0.00
2013-7-31,70.3,68.0,65.4,68.8,66.6,64.2,99,95,87,30.22,30.01,8,1,17,0.16
2013-8-1,80.3,71.7,67.5,71.1,67.7,64.8,98,88,68,30.05,29.96,5,0,14,0.00
2013-8-2,83.0,70.5,61.5,69.8,65.0,60.4,99,84,56,30.09,30.00,5,0,14,0.00
2013-8-3,78.3,70.5,63.9,70.7,66.6,62.4,96,88,73,30.09,30.04,3,0,16,0.00
2013-8-4,77.2,71.6,66.5,70.2,66.5,60.5,97,85,61,30.09,30.04,3,0,10,0.00
2013-8-5,83.8,70.4,60.5,68.5,62.8,58.9,96,79,48,30.12,30.04,7,0,14,0.00
2013-8-6,81.1,71.9,64.7,71.4,66.8,62.5,96,85,70,30.06,30.00,5,0,14,0.01
2013-8-7,77.7,71.8,68.4,72.6,69.9,67.5,98,94,81,30.08,30.02,6,0,16,0.03
2013-8-8,82.1,72.9,68.5,73.7,70.2,67.9,99,91,74,30.10,30.03,7,0,17,0.05
2013-8-9,84.5,73.9,68.2,74.1,70.9,67.9,100,91,68,30.14,30.06,7,0,19,0.02
2013-8-10,73.9,72.1,69.6,73.0,70.8,68.8,99,96,92,30.17,30.11,9,0,16,1.64
2013-8-11,77.3,71.3,66.5,73.9,70.2,66.2,100,96,88,30.22,30.12,5,0,14,0.59
2013-8-12,76.8,72.0,67.1,73.9,70.2,66.5,100,94,87,30.17,30.03,6,0,16,0.04
2013-8-13,76.5,71.5,69.1,72.7,69.5,66.8,100,94,79,30.05,29.91,6,1,14,0.26
2013-8-14,73.7,68.5,64.6,68.0,65.2,61.0,98,89,72,30.08,29.95,2,0,9,0.00
2013-8-15,71.2,65.6,60.3,65.5,62.2,58.9,98,89,78,30.13,30.06,8,0,12,0.00
2013-8-16,70.2,63.5,58.1,64.6,59.6,56.7,98,87,71,30.17,30.09,1,0,7,0.00
2013-8-17,67.6,63.6,60.7,65.0,60.5,54.4,99,90,78,30.19,30.12,2,0,7,0.25
2013-8-18,69.0,64.9,62.7,67.9,64.5,62.4,100,99,95,30.26,30.16,7,0,17,0.62
2013-8-19,69.8,66.3,63.5,69.8,66.1,63.2,100,99,99,30.24,30.12,2,0,7,0.92
2013-8-20,73.2,68.5,63.9,71.2,67.5,63.8,100,97,87,30.24,30.15,1,0,9,0.01
2013-8-21,69.8,67.7,66.0,69.2,67.3,65.5,100,99,97,30.28,30.19,3,0,10,0.06
2013-8-22,79.4,70.7,63.9,73.6,68.3,63.6,100,93,73,30.25,30.10,6,0,16,0.00
2013-8-23,79.8,70.3,64.1,71.9,67.3,63.8,100,91,71,30.14,30.04,2,0,10,0.01
2013-8-24,79.2,68.4,61.5,70.2,64.2,60.7,100,88,57,30.32,30.12,3,0,10,0.00
2013-8-25,75.1,66.5,57.2,66.3,61.0,55.6,96,83,62,30.41,30.30,2,0,15,0.00
2013-8-26,75.8,67.6,59.3,67.9,63.1,58.1,98,86,66,30.37,30.20,1,0,6,0.00
2013-8-27,76.5,68.0,59.5,71.7,64.8,58.7,99,90,77,30.23,30.10,1,0,8,0.00
2013-8-28,81.5,72.5,64.8,74.0,68.2,63.8,99,87,69,30.14,30.03,2,0,8,0.00
2013-8-29,81.3,75.0,71.5,75.4,70.8,68.8,93,87,78,30.06,29.97,3,0,10,0.00
2013-8-30,83.6,73.7,65.3,73.1,69.4,64.7,100,88,64,30.07,29.97,5,0,14,0.00
2013-8-31,84.3,74.3,68.8,74.1,70.9,67.5,99,90,69,30.01,29.90,9,0,14,0.01
2013-9-1,78.8,71.6,68.7,73.3,69.8,67.9,99,94,81,29.96,29.87,7,1,17,0.17
2013-9-2,78.8,71.1,64.9,73.3,68.7,64.3,100,93,76,30.01,29.90,10,0,19,0.00
2013-9-3,77.9,70.7,63.5,72.1,67.4,62.9,100,90,68,30.05,29.89,2,0,11,0.42
2013-9-4,79.5,68.9,61.1,69.9,64.8,60.8,100,88,63,30.17,30.04,3,0,10,0.00
2013-9-5,79.8,69.2,61.6,71.2,65.0,61.0,100,88,60,30.20,30.13,5,0,14,0.00
2013-9-6,79.5,68.4,59.3,68.4,63.8,58.4,99,87,64,30.22,30.12,2,0,8,0.00
2013-9-7,78.5,69.7,61.3,69.9,65.2,60.4,100,86,69,30.18,30.06,9,1,10,0.00
2013-9-8,77.5,70.7,64.8,69.8,66.2,63.4,99,86,70,30.09,30.00,8,0,8,0.00
2013-9-9,77.8,67.1,61.6,71.7,65.6,60.8,100,95,78,30.21,30.07,20,0,20,0.88
2013-9-10,80.6,68.8,62.6,72.4,66.6,62.3,100,93,71,30.31,30.21,12,0,12,0.10
2013-9-11,80.0,69.6,61.6,71.1,66.4,61.0,100,90,73,30.31,30.17,14,0,14,0.01
2013-9-12,72.6,68.3,64.6,71.5,67.3,64.3,100,97,92,30.17,29.97,15,0,15,0.81
2013-9-13,70.7,65.2,56.7,67.2,60.7,52.1,100,86,63,29.99,29.91,10,1,14,0.39
2013-9-14,71.5,59.1,48.7,63.8,55.2,47.9,99,88,68,30.18,29.98,4,0,4,0.00
2013-9-15,73.9,62.1,53.4,63.9,58.1,52.4,99,88,64,30.26,30.18,8,0,8,0.00
2013-9-16,75.9,65.8,58.8,64.4,60.5,57.0,100,85,54,30.24,30.16,8,0,8,0.00
2013-9-17,69.2,64.4,60.9,64.4,61.4,58.5,98,90,81,30.27,30.19,13,1,13,0.00
2013-9-18,66.1,62.1,59.2,62.1,59.4,56.8,97,91,83,30.30,30.21,12,0,12,0.00
2013-9-19,76.4,65.5,58.0,68.7,62.6,57.4,99,91,72,30.27,30.14,0,0,0,0.00
2013-9-20,76.4,67.6,60.0,66.6,63.4,59.4,100,88,68,30.16,29.98,17,2,17,0.00
2013-9-21,67.9,64.1,59.8,65.4,62.8,59.1,99,96,88,29.99,29.75,15,2,15,2.17
2013-9-22,68.7,59.7,52.7,62.5,56.6,52.2,99,90,72,29.99,29.83,7,0,7,0.00
2013-9-23,71.7,60.4,52.8,64.4,57.6,52.5,100,91,71,30.11,29.99,10,0,10,0.01
2013-9-24,69.4,60.7,53.3,65.0,58.9,52.5,99,94,84,30.12,29.98,14,1,14,0.00
2013-9-25,63.1,61.5,60.8,62.3,61.3,60.5,100,99,97,29.98,29.88,8,0,8,1.86
2013-9-26,69.2,62.8,58.1,65.4,61.3,57.1,100,95,77,30.10,29.93,8,1,8,0.05
2013-9-27,70.2,60.4,54.0,63.3,57.7,53.7,100,92,68,30.23,30.09,4,0,4,0.00
2013-9-28,68.5,59.7,52.7,62.7,57.1,51.9,97,91,71,30.27,30.17,2,0,2,0.00
2013-9-29,64.9,59.2,55.2,59.3,56.5,54.1,97,91,79,30.22,30.09,7,0,7,0.00
2013-9-30,67.2,59.6,52.8,61.4,56.7,52.3,99,90,77,30.17,30.08,12,1,12,0.00
2013-10-1,70.8,61.0,53.8,63.2,57.9,53.0,99,90,72,30.24,30.14,8,0,8,0.00
2013-10-2,72.7,62.6,54.8,64.7,59.4,54.2,100,90,64,30.26,30.15,6,0,6,0.00
2013-10-3,74.2,65.3,59.4,64.9,61.3,58.5,98,88,71,30.21,30.13,12,1,12,0.00
2013-10-4,75.2,64.4,56.0,66.2,60.8,55.3,100,89,65,30.25,30.16,14,0,14,0.00
2013-10-5,77.5,65.8,57.7,68.9,62.2,56.9,100,89,66,30.21,30.08,11,0,11,0.00
2013-10-6,74.9,66.3,59.6,66.8,62.2,58.5,99,87,68,30.11,29.89,24,3,24,0.11
2013-10-7,63.8,57.7,51.7,62.6,55.6,49.2,99,93,80,30.09,29.86,11,1,13,0.57
2013-10-8,70.0,56.8,46.2,63.0,53.5,45.4,99,89,72,30.23,30.09,1,0,15,0.00
2013-10-9,69.8,59.0,50.8,61.8,55.6,50.3,100,89,69,30.26,30.17,2,0,9,0.00
2013-10-10,66.8,58.0,50.8,58.2,53.9,50.2,99,87,68,30.21,30.12,3,0,14,0.00
2013-10-11,70.0,58.6,49.3,59.5,53.7,48.8,99,85,51,30.15,30.07,2,0,10,0.00
2013-10-12,70.0,60.7,51.8,60.7,56.1,51.0,99,86,69,30.20,30.09,6,0,6,0.00
2013-10-13,68.0,61.1,54.7,63.0,58.2,53.3,97,91,82,30.27,30.19,7,0,7,0.00
2013-10-14,68.4,61.3,55.1,61.2,58.4,54.4,100,91,73,30.28,30.18,2,0,2,0.00
2013-10-15,68.7,60.7,54.1,61.6,57.3,52.7,97,89,77,30.23,30.08,13,2,13,0.00
2013-10-16,64.4,59.4,55.6,59.8,57.2,54.5,98,93,84,30.12,30.02,11,1,11,0.01
2013-10-17,63.0,60.1,54.8,62.9,59.6,54.1,100,98,96,30.04,29.93,19,2,19,0.43
2013-10-18,64.4,55.3,49.5,56.8,51.7,48.6,100,88,66,30.09,30.00,12,1,12,0.00
2013-10-19,58.5,54.0,49.7,53.3,51.0,47.3,98,90,77,30.06,29.97,20,3,20,0.00
2013-10-20,61.5,49.3,39.7,47.8,41.4,37.3,96,77,43,30.18,30.04,16,2,16,0.00
2013-10-21,64.0,50.6,38.8,51.1,44.9,37.8,99,82,57,30.24,30.11,15,1,15,0.00
2013-10-22,65.0,56.4,52.4,51.3,49.4,44.0,94,78,57,30.14,29.91,22,4,22,0.00
2013-10-23,52.9,44.9,37.2,48.7,39.1,31.1,90,80,70,30.16,29.85,18,6,18,0.00
2013-10-24,50.3,42.7,35.2,41.0,35.9,30.5,86,77,63,30.31,30.15,17,3,17,0.00
2013-10-25,46.6,37.3,29.5,36.4,28.0,21.0,87,70,40,30.48,30.31,12,2,12,0.00
2013-10-26,53.2,40.2,27.8,35.1,29.9,25.8,94,70,41,30.46,30.27,24,6,24,0.00
2013-10-27,58.7,52.3,46.8,50.3,45.8,34.8,88,79,63,30.29,30.18,20,4,20,0.00
2013-10-28,58.8,54.2,51.3,52.8,51.4,50.1,98,90,77,30.36,30.21,16,4,16,0.06
2013-10-29,64.7,54.5,46.2,54.8,50.8,45.6,99,88,68,30.44,30.34,17,1,17,0.00
2013-10-30,70.7,61.3,54.0,58.7,55.5,51.3,94,82,62,30.38,30.23,19,3,19,0.00
2013-10-31,65.8,62.0,58.1,60.3,56.6,52.9,94,83,73,30.23,29.83,42,10,43,0.06
2013-11-1,66.5,61.2,54.7,61.1,53.2,44.2,98,77,45,29.85,29.74,32,11,32,0.35
2013-11-2,54.6,49.6,43.1,46.1,42.5,38.3,87,77,62,30.14,29.84,23,3,23,0.01
2013-11-3,57.1,46.5,39.0,42.0,38.3,36.1,93,75,52,30.42,30.12,9,1,9,0.00
2013-11-4,57.2,45.2,36.3,41.3,36.6,32.1,92,73,51,30.55,30.41,15,2,15,0.00
2013-11-5,64.5,48.9,37.0,49.6,39.9,33.2,88,72,54,30.57,30.44,16,1,16,0.00
2013-11-6,66.3,56.7,47.2,55.1,49.7,36.2,98,78,63,30.46,30.18,30,6,30,0.00
2013-11-7,56.7,49.1,38.6,55.6,44.8,31.2,100,85,66,30.28,30.07,23,5,23,0.35
2013-11-8,51.3,40.9,34.0,31.9,26.6,21.3,79,59,33,30.45,30.28,14,2,14,0.00
2013-11-9,53.4,42.5,31.1,33.9,28.9,24.7,92,61,40,30.47,30.35,22,4,22,0.00
2013-11-10,60.7,51.8,45.1,39.6,33.7,23.1,65,50,37,30.39,30.30,16,3,16,0.00
2013-11-11,61.6,47.6,32.2,33.9,30.0,26.3,85,54,30,30.41,30.27,20,3,20,0.00
2013-11-12,51.7,39.6,23.2,40.1,28.7,15.7,89,66,44,30.53,30.21,20,6,20,0.00
2013-11-13,43.3,30.4,20.1,19.5,16.1,10.9,81,58,34,30.72,30.53,5,0,5,0.00
2013-11-14,54.4,38.4,25.2,23.8,19.5,15.7,79,51,26,30.63,30.44,20,3,20,0.00
2013-11-15,47.1,39.5,32.8,46.8,33.2,17.6,99,80,50,30.46,30.27,13,0,13,0.39
2013-11-16,59.1,52.5,46.1,56.5,51.3,45.6,99,96,87,30.35,30.23,15,2,15,0.03
2013-11-17,62.7,59.5,55.2,62.1,57.6,53.5,99,93,88,30.25,29.95,26,5,27,0.78
2013-11-18,63.0,53.6,43.5,62.7,44.3,31.1,100,72,49,30.13,29.93,34,9,35,0.07
2013-11-19,53.7,43.4,35.5,33.9,28.7,21.0,73,58,36,30.27,30.12,14,2,14,0.00
2013-11-20,52.8,42.4,35.4,37.5,30.3,26.0,76,63,43,30.47,30.26,14,3,14,0.00
2013-11-21,58.6,49.4,39.9,52.7,43.8,31.6,96,81,71,30.51,30.41,13,1,13,0.00
2013-11-22,59.9,56.4,53.1,58.2,55.5,52.0,100,97,93,30.43,30.23,16,3,16,0.13
2013-11-23,55.5,43.5,30.9,54.4,40.3,21.2,100,89,67,30.35,30.18,23,6,23,0.00
2013-11-24,35.6,27.7,19.8,22.2,15.7,10.6,82,62,40,30.61,30.35,10,3,10,0.01
2013-11-25,39.8,32.0,24.4,32.3,19.1,13.4,92,61,35,30.61,30.36,8,1,8,0.02
2013-11-26,45.8,41.5,34.3,45.5,41.0,32.2,99,98,92,30.36,29.79,28,3,28,3.50
2013-11-27,37.7,26.9,19.8,36.9,24.5,15.2,97,90,80,30.35,29.78,29,9,29,0.07
2013-11-28,42.7,28.0,15.4,31.3,21.8,13.4,100,79,49,30.63,30.35,16,3,16,0.00
2013-11-29,50.1,37.2,28.0,34.0,26.9,19.1,85,67,52,30.68,30.57,9,1,9,0.07
2013-11-30,49.6,37.8,29.2,32.3,28.1,25.0,92,70,48,30.65,30.45,17,2,17,0.02
2013-12-1,51.6,44.1,34.8,40.0,33.9,26.2,87,68,46,30.45,30.09,22,4,22,0.00
2013-12-2,47.9,43.9,40.9,46.2,40.4,33.5,96,87,69,30.09,29.90,17,2,17,0.01
2013-12-3,52.1,48.9,45.3,51.2,48.4,44.8,99,98,95,30.00,29.93,10,1,10,0.09
2013-12-4,63.7,56.3,50.1,57.1,53.5,49.6,99,91,77,30.11,29.99,25,3,25,0.00
2013-12-5,67.7,62.3,59.2,63.2,60.4,56.1,99,94,84,30.12,30.01,19,5,19,0.81
2013-12-6,68.5,63.9,52.7,63.6,61.8,51.2,99,93,80,30.07,29.95,45,14,45,1.16
2013-12-7,42.9,40.1,37.2,42.1,39.4,36.4,99,97,95,30.39,30.25,7,2,7,1.23
2013-12-8,47.4,43.8,41.1,46.9,43.5,40.6,100,99,98,30.37,30.22,12,1,12,0.72
2013-12-9,54.2,50.9,45.7,54.1,50.7,45.4,100,99,98,30.22,30.05,28,7,28,0.97
2013-12-10,49.0,38.3,27.5,49.0,35.8,21.5,100,91,73,30.42,29.98,26,7,26,0.88
2013-12-11,44.8,32.9,22.3,25.9,22.0,16.4,95,68,38,30.60,30.41,22,4,22,0.00
2013-12-12,37.0,30.8,25.0,23.7,15.6,7.2,85,56,29,30.56,30.48,14,4,14,0.00
2013-12-13,46.0,33.7,22.3,27.3,20.0,10.8,86,59,37,30.53,30.33,16,2,16,0.00
2013-12-14,48.7,43.4,37.3,48.4,39.5,22.8,99,87,57,30.34,29.89,25,4,25,0.72
2013-12-15,47.5,32.4,26.8,47.2,31.1,25.0,99,95,89,30.29,29.89,26,7,27,0.06
2013-12-16,43.8,35.3,26.0,34.2,29.8,24.8,97,82,62,30.39,30.28,23,7,23,0.01
2013-12-17,51.8,43.1,35.3,37.7,33.1,25.5,75,68,55,30.33,30.13,41,17,41,0.00
2013-12-18,45.3,35.7,28.3,25.9,14.1,-1.8,78,45,14,30.44,30.25,22,6,22,0.00
2013-12-19,58.7,42.5,29.1,31.2,25.6,16.9,83,55,33,30.49,30.31,16,3,16,0.00
2013-12-20,59.4,49.6,41.1,52.1,36.7,24.1,86,62,49,30.32,30.21,24,4,24,0.00
2013-12-21,63.9,60.3,54.0,62.3,57.9,49.8,97,92,83,30.22,29.94,43,10,43,0.35
2013-12-22,64.4,56.4,50.1,62.4,55.3,49.2,99,96,87,30.14,29.92,41,10,41,2.83
2013-12-23,50.4,42.7,30.8,50.1,41.6,29.5,99,96,90,30.33,30.08,22,6,22,0.14
2013-12-24,30.8,26.0,19.9,29.7,22.9,17.8,96,88,79,30.55,30.32,22,4,22,0.00
2013-12-25,39.7,27.5,18.4,27.7,21.1,16.5,95,78,56,30.63,30.49,19,3,20,0.00
2013-12-26,44.2,34.1,26.1,27.8,24.7,21.8,92,70,46,30.52,30.41,15,2,15,0.00
2013-12-27,49.3,35.3,25.3,31.9,27.0,23.1,93,74,50,30.60,30.47,15,1,15,0.00
2013-12-28,40.4,34.1,27.8,39.4,31.2,25.1,97,89,76,30.56,30.15,14,1,14,0.70
2013-12-29,47.6,43.1,39.7,47.3,41.6,32.8,100,94,74,30.16,29.96,28,7,28,0.58
2013-12-30,42.2,39.2,34.4,39.8,37.0,33.3,96,92,82,30.27,30.10,23,6,23,0.00
2013-12-31,38.5,33.2,28.6,33.3,23.9,16.9,96,70,47,30.50,30.25,22,3,22,0.00
2014-1-1,43.9,33.9,26.2,29.6,25.1,22.7,90,72,48,30.50,30.26,14,1,14,0.00
2014-1-2,43.6,34.8,15.2,43.1,32.5,11.8,99,91,75,30.27,29.83,32,8,32,0.60